createdAt,value
2019-05-09T00:01:07.838Z,21.98
2019-05-09T00:06:13.579Z,21.94
2019-05-09T00:11:17.577Z,21.94
2019-05-09T00:16:23.512Z,21.88
2019-05-09T00:21:39.328Z,21.88
2019-05-09T00:26:44.356Z,21.84
2019-05-09T00:32:04.888Z,21.82
2019-05-09T00:37:08.880Z,21.82
2019-05-09T00:42:13.737Z,21.69
2019-05-09T00:47:25.104Z,21.76
2019-05-09T00:52:29.123Z,21.72
2019-05-09T00:57:36.098Z,21.69
2019-05-09T01:02:40.198Z,21.69
2019-05-09T01:07:44.222Z,21.65
2019-05-09T01:12:48.215Z,21.68
2019-05-09T01:17:53.649Z,21.64
2019-05-09T01:22:57.811Z,21.62
2019-05-09T01:28:03.287Z,21.63
2019-05-09T01:33:33.279Z,21.61
2019-05-09T01:38:37.415Z,21.59
2019-05-09T01:43:41.458Z,21.58
2019-05-09T01:48:45.539Z,21.56
2019-05-09T01:53:53.231Z,21.55
2019-05-09T01:58:57.413Z,21.54
2019-05-09T02:04:01.480Z,21.54
2019-05-09T02:09:07.013Z,21.54
2019-05-09T02:14:13.468Z,21.53
2019-05-09T02:19:24.113Z,21.50
2019-05-09T02:24:28.382Z,21.50
2019-05-09T02:29:33.747Z,21.47
2019-05-09T02:34:37.846Z,21.48
2019-05-09T02:39:41.860Z,21.39
2019-05-09T02:44:48.974Z,21.45
2019-05-09T02:49:51.811Z,21.45
2019-05-09T02:54:58.360Z,21.45
2019-05-09T03:00:10.262Z,21.44
2019-05-09T03:05:14.392Z,21.43
2019-05-09T03:10:19.349Z,21.42
2019-05-09T03:15:23.610Z,21.40
2019-05-09T03:20:49.659Z,21.39
2019-05-09T03:25:53.747Z,21.38
2019-05-09T03:30:59.473Z,21.29
2019-05-09T03:36:03.715Z,21.37
2019-05-09T03:41:08.630Z,21.37
2019-05-09T03:46:27.897Z,21.34
2019-05-09T03:51:31.259Z,21.35
2019-05-09T03:56:39.630Z,21.32
2019-05-09T04:01:46.768Z,21.30
2019-05-09T04:06:49.446Z,21.28
2019-05-09T04:11:53.481Z,21.27
2019-05-09T04:16:57.688Z,21.26
2019-05-09T04:22:02.349Z,21.25
2019-05-09T04:27:10.919Z,21.24
2019-05-09T04:32:14.949Z,21.24
2019-05-09T04:37:18.957Z,21.22
2019-05-09T04:42:22.992Z,21.20
2019-05-09T04:47:27.828Z,21.20
2019-05-09T04:52:31.949Z,21.20
2019-05-09T04:57:38.147Z,21.18
2019-05-09T05:02:45.274Z,21.18
2019-05-09T05:07:49.308Z,21.17
2019-05-09T05:12:53.334Z,21.15
2019-05-09T05:17:58.285Z,21.15
2019-05-09T05:23:21.225Z,21.12
2019-05-09T05:28:25.236Z,21.12
2019-05-09T05:33:41.791Z,21.12
2019-05-09T05:38:47.987Z,21.12
2019-05-09T05:43:51.757Z,21.11
2019-05-09T05:48:57.756Z,21.11
2019-05-09T05:54:02.173Z,21.11
2019-05-09T05:59:08.395Z,21.10
2019-05-09T06:04:11.929Z,21.10
2019-05-09T06:09:18.673Z,21.10
2019-05-09T06:14:21.718Z,21.10
2019-05-09T06:19:28.425Z,21.08
2019-05-09T06:24:31.570Z,21.09
2019-05-09T06:29:35.597Z,21.09
2019-05-09T06:34:42.127Z,21.09
2019-05-09T06:39:45.599Z,21.09
2019-05-09T06:45:02.028Z,21.10
2019-05-09T06:50:08.990Z,21.10
2019-05-09T06:55:13.326Z,21.09
2019-05-09T07:00:28.317Z,21.08
2019-05-09T07:05:57.570Z,21.08
2019-05-09T07:11:01.752Z,21.08
2019-05-09T07:16:05.955Z,21.08
2019-05-09T07:21:10.154Z,19.35
2019-05-09T07:26:17.865Z,17.72
2019-05-09T07:31:44.687Z,17.75
2019-05-09T07:36:48.673Z,18.30
2019-05-09T07:41:52.667Z,18.27
2019-05-09T07:47:04.777Z,18.24
2019-05-09T07:52:10.333Z,18.20
2019-05-09T07:57:14.759Z,18.31
2019-05-09T08:02:18.850Z,18.08
2019-05-09T08:07:22.942Z,18.88
2019-05-09T08:12:28.438Z,20.09
2019-05-09T08:17:32.650Z,19.73
2019-05-09T08:22:40.973Z,20.56
2019-05-09T08:27:42.383Z,20.77
2019-05-09T08:32:48.290Z,20.77
2019-05-09T08:37:52.197Z,20.83
2019-05-09T08:42:58.508Z,20.76
2019-05-09T08:48:01.984Z,20.76
2019-05-09T08:53:08.256Z,20.85
2019-05-09T08:58:11.823Z,21.09
2019-05-09T09:03:18.347Z,21.06
2019-05-09T09:08:21.653Z,21.08
2019-05-09T09:13:25.723Z,21.05
2019-05-09T09:18:29.731Z,21.09
2019-05-09T09:23:43.941Z,21.10
2019-05-09T09:28:39.623Z,21.15
2019-05-09T09:33:43.638Z,21.15
2019-05-09T09:38:48.206Z,21.19
2019-05-09T09:43:52.436Z,21.11
2019-05-09T09:48:58.575Z,21.10
2019-05-09T09:54:02.411Z,21.09
2019-05-09T09:59:24.555Z,21.09
2019-05-09T10:04:28.780Z,21.09
2019-05-09T10:09:32.935Z,21.07
2019-05-09T10:14:40.264Z,21.07
2019-05-09T10:19:52.266Z,21.05
2019-05-09T10:24:58.579Z,21.09
2019-05-09T10:30:02.105Z,21.11
2019-05-09T10:35:08.736Z,21.11
2019-05-09T10:40:15.707Z,21.12
2019-05-09T10:45:39.992Z,21.13
2019-05-09T10:50:44.539Z,21.12
2019-05-09T10:55:48.105Z,21.12
2019-05-09T11:00:52.188Z,21.12
2019-05-09T11:05:57.980Z,21.11
2019-05-09T11:11:05.701Z,21.11
2019-05-09T11:16:07.844Z,21.11
2019-05-09T11:21:11.931Z,21.11
2019-05-09T11:26:17.905Z,21.08
2019-05-09T11:31:21.966Z,21.10
2019-05-09T11:36:26.182Z,21.11
2019-05-09T11:41:30.509Z,21.09
2019-05-09T11:46:34.621Z,21.12
2019-05-09T11:51:38.774Z,21.13
2019-05-09T11:56:42.779Z,21.17
2019-05-09T12:01:48.274Z,21.17
2019-05-09T12:06:52.457Z,21.17
2019-05-09T12:11:58.807Z,21.21
2019-05-09T12:17:02.198Z,21.20
2019-05-09T12:22:08.710Z,21.21
2019-05-09T12:27:12.036Z,21.21
2019-05-09T12:32:18.425Z,21.23
2019-05-09T12:37:21.733Z,21.25
2019-05-09T12:42:28.681Z,21.28
2019-05-09T12:47:31.596Z,21.29
2019-05-09T12:52:35.690Z,21.30
2019-05-09T12:57:39.743Z,21.30
2019-05-09T13:02:43.860Z,21.36
2019-05-09T13:07:48.269Z,21.41
2019-05-09T13:12:52.390Z,21.41
2019-05-09T13:17:58.060Z,21.54
2019-05-09T13:23:02.066Z,21.53
2019-05-09T13:28:08.233Z,21.60
2019-05-09T13:33:11.854Z,21.68
2019-05-09T13:38:17.908Z,21.74
2019-05-09T13:43:21.763Z,21.74
2019-05-09T13:48:37.876Z,21.78
2019-05-09T13:53:31.474Z,21.78
2019-05-09T13:58:35.552Z,21.80
2019-05-09T14:03:39.546Z,21.80
2019-05-09T14:08:43.576Z,21.83
2019-05-09T14:13:48.779Z,21.89
2019-05-09T14:18:55.539Z,21.89
2019-05-09T14:24:10.818Z,21.93
2019-05-09T14:29:05.694Z,21.94
2019-05-09T14:34:09.797Z,21.94
2019-05-09T14:39:13.815Z,21.90
2019-05-09T14:44:18.294Z,21.95
2019-05-09T14:49:22.407Z,21.97
2019-05-09T14:54:28.834Z,22.05
2019-05-09T14:59:32.131Z,22.09
2019-05-09T15:04:38.570Z,22.04
2019-05-09T15:09:41.895Z,22.07
2019-05-09T15:14:47.986Z,22.04
2019-05-09T15:19:59.666Z,22.04
2019-05-09T15:24:59.070Z,22.11
2019-05-09T15:30:03.449Z,22.13
2019-05-09T15:35:08.989Z,22.17
2019-05-09T15:40:13.689Z,22.20
2019-05-09T15:45:18.444Z,22.24
2019-05-09T15:50:23.463Z,22.29
2019-05-09T15:55:28.282Z,22.28
2019-05-09T16:00:32.569Z,22.28
2019-05-09T16:05:38.536Z,22.30
2019-05-09T16:10:42.729Z,22.57
2019-05-09T16:15:48.649Z,22.73
2019-05-09T16:20:52.549Z,22.96
2019-05-09T16:25:58.591Z,22.96
2019-05-09T16:31:02.366Z,23.29
2019-05-09T16:36:06.384Z,23.29
2019-05-09T16:41:10.465Z,23.07
2019-05-09T16:46:14.622Z,23.15
2019-05-09T16:51:18.625Z,23.15
2019-05-09T16:56:22.735Z,23.13
2019-05-09T17:01:28.422Z,22.99
2019-05-09T17:06:32.577Z,22.96
2019-05-09T17:11:36.667Z,22.96
2019-05-09T17:16:40.661Z,22.76
2019-05-09T17:21:59.439Z,22.74
2019-05-09T17:27:03.429Z,22.74
2019-05-09T17:32:07.850Z,22.69
2019-05-09T17:37:12.007Z,22.69
2019-05-09T17:42:18.115Z,22.59
2019-05-09T17:47:21.944Z,22.62
2019-05-09T17:52:26.030Z,22.66
2019-05-09T17:57:30.060Z,22.62
2019-05-09T18:02:34.125Z,22.62
2019-05-09T18:07:38.262Z,22.71
2019-05-09T18:12:42.415Z,22.75
2019-05-09T18:17:47.865Z,22.59
2019-05-09T18:22:52.205Z,22.67
2019-05-09T18:27:57.461Z,22.63
2019-05-09T18:33:20.100Z,22.60
2019-05-09T18:38:30.797Z,22.60
2019-05-09T18:43:34.795Z,22.65
2019-05-09T18:48:38.793Z,22.62
2019-05-09T18:53:42.849Z,22.58
2019-05-09T18:58:46.907Z,22.58
2019-05-09T19:03:50.901Z,22.51
2019-05-09T19:08:54.889Z,22.50
2019-05-09T19:13:59.365Z,22.47
2019-05-09T19:19:16.585Z,22.48
2019-05-09T19:24:20.736Z,22.48
2019-05-09T19:29:24.909Z,22.50
2019-05-09T19:34:28.903Z,22.48
2019-05-09T19:39:32.922Z,22.47
2019-05-09T19:44:37.041Z,22.46
2019-05-09T19:49:41.051Z,22.46
2019-05-09T19:54:45.148Z,22.42
2019-05-09T19:59:49.137Z,22.42
2019-05-09T20:04:55.180Z,22.44
2019-05-09T20:10:12.877Z,22.42
2019-05-09T20:15:18.814Z,22.42
2019-05-09T20:20:22.907Z,22.41
2019-05-09T20:25:27.004Z,22.42
2019-05-09T20:30:30.989Z,22.41
2019-05-09T20:35:34.996Z,22.41
2019-05-09T20:40:39.384Z,22.40
2019-05-09T20:45:43.684Z,22.39
2019-05-09T20:50:47.876Z,22.40
2019-05-09T20:55:52.095Z,22.40
2019-05-09T21:00:56.362Z,22.39
2019-05-09T21:06:00.561Z,22.40
2019-05-09T21:11:04.884Z,22.40
2019-05-09T21:16:09.171Z,22.39
2019-05-09T21:21:13.428Z,22.38
2019-05-09T21:26:17.752Z,22.30
2019-05-09T21:31:21.962Z,22.38
2019-05-09T21:36:25.989Z,22.38
2019-05-09T21:41:30.070Z,22.39
2019-05-09T21:46:34.068Z,22.39
2019-05-09T21:51:38.098Z,22.39
2019-05-09T21:56:42.119Z,22.40
2019-05-09T22:01:47.210Z,22.41
2019-05-09T22:06:51.367Z,22.39
2019-05-09T22:11:55.444Z,22.40
2019-05-09T22:17:02.584Z,22.40
2019-05-09T22:22:06.675Z,22.39
2019-05-09T22:27:10.703Z,22.38
2019-05-09T22:32:14.862Z,22.40
2019-05-09T22:37:18.856Z,22.40
2019-05-09T22:42:23.041Z,22.42
2019-05-09T22:47:27.107Z,22.40
2019-05-09T22:52:31.136Z,22.41
2019-05-09T22:57:35.146Z,22.41
2019-05-09T23:02:39.219Z,22.40
2019-05-09T23:07:43.233Z,22.40
2019-05-09T23:12:47.267Z,22.40
2019-05-09T23:17:51.270Z,22.40
2019-05-09T23:22:55.245Z,22.40
2019-05-09T23:27:59.230Z,22.41
2019-05-09T23:33:03.217Z,22.41
2019-05-09T23:38:07.318Z,22.41
2019-05-09T23:43:11.308Z,22.40
2019-05-09T23:48:15.387Z,22.31
2019-05-09T23:53:31.707Z,22.31
2019-05-09T23:58:53.479Z,22.39
